Time;durP1;ratioP1;P1;durP2;ratioP2;P2;SDS_P1;SDS_P2;PMS_P1;PMS_P2;Temp;Humidity;BMP_temperature;BMP_pressure;BME280_temperature;BME280_humidity;BME280_pressure;Samples;Min_cycle;Max_cycle;Signal;HPM_P1;HPM_P2
2022/08/21 00:00:34;;;;;;;1.63;0.93;;;;;;;23.66;40.98;101669.59;16140889;19;128913;-52
2022/08/21 00:05:56;;;;;;;2.50;1.02;;;;;;;23.65;40.54;101665.09;16142599;19;129972;-48
2022/08/21 00:11:18;;;;;;;2.17;1.00;;;;;;;23.65;41.18;101651.13;16142423;19;129876;-47
2022/08/21 00:16:40;;;;;;;3.58;0.80;;;;;;;23.65;40.85;101648.34;16145210;19;128803;-48
2022/08/21 00:22:02;;;;;;;3.15;0.98;;;;;;;23.65;40.93;101644.72;16139131;19;130375;-50
2022/08/21 00:27:24;;;;;;;1.52;0.80;;;;;;;23.63;40.94;101636.59;16143950;19;129469;-52
2022/08/21 00:32:46;;;;;;;1.88;0.75;;;;;;;23.64;41.07;101629.06;16138930;19;129214;-49
2022/08/21 00:38:09;;;;;;;1.55;0.85;;;;;;;23.63;40.77;101630.16;16143191;19;130231;-47
2022/08/21 00:43:33;;;;;;;1.40;0.88;;;;;;;23.62;41.31;101626.53;16142921;19;129498;-49
2022/08/21 00:48:55;;;;;;;1.63;0.90;;;;;;;23.60;40.99;101628.75;16141243;19;129519;-47
2022/08/21 00:54:24;;;;;;;2.23;0.90;;;;;;;23.61;40.68;101633.22;16137793;19;128973;-47
2022/08/21 00:59:49;;;;;;;1.20;0.70;;;;;;;23.61;41.13;101633.22;16141866;19;129508;-49
2022/08/21 01:05:12;;;;;;;2.17;0.97;;;;;;;23.60;41.12;101636.28;16143602;19;129929;-52
2022/08/21 01:10:36;;;;;;;1.95;0.90;;;;;;;23.59;41.08;101629.00;16141068;19;129242;-54
2022/08/21 01:16:02;;;;;;;2.55;0.90;;;;;;;23.59;41.14;101629.00;16142291;19;130357;-54
2022/08/21 01:21:26;;;;;;;1.92;1.00;;;;;;;23.58;41.47;101627.28;16140459;19;128748;-53
2022/08/21 01:26:50;;;;;;;1.83;0.75;;;;;;;23.57;41.13;101632.03;16138132;19;128962;-53
2022/08/21 01:32:16;;;;;;;2.33;1.27;;;;;;;23.57;41.11;101637.63;16137673;19;129012;-52
2022/08/21 01:37:38;;;;;;;1.88;0.80;;;;;;;23.55;41.18;101639.81;16139076;19;129741;-49
2022/08/21 01:43:00;;;;;;;1.10;0.60;;;;;;;23.54;41.18;101629.75;16139515;19;128943;-50
2022/08/21 01:48:22;;;;;;;1.40;0.90;;;;;;;23.54;41.13;101626.97;16158141;19;129371;-50
2022/08/21 01:53:44;;;;;;;0.95;0.60;;;;;;;23.54;41.23;101629.75;16199242;19;129092;-51
2022/08/21 01:59:07;;;;;;;1.55;0.80;;;;;;;23.53;41.25;101621.66;16197952;19;129297;-51
2022/08/21 02:04:28;;;;;;;3.78;0.88;;;;;;;23.52;40.97;101623.59;16201274;19;128754;-47
2022/08/21 02:09:50;;;;;;;1.33;0.80;;;;;;;23.52;41.28;101626.38;16198440;19;128923;-50
2022/08/21 02:15:14;;;;;;;0.77;0.70;;;;;;;23.52;41.58;101623.59;16198773;19;128651;-52
2022/08/21 02:20:39;;;;;;;1.05;0.65;;;;;;;23.51;41.37;101610.72;16201010;19;129602;-50
2022/08/21 02:26:03;;;;;;;1.15;0.70;;;;;;;23.50;41.54;101611.88;16202319;19;129690;-49
2022/08/21 02:31:26;;;;;;;1.63;0.80;;;;;;;23.49;41.68;101618.56;16199504;19;129154;-49
2022/08/21 02:36:48;;;;;;;1.38;0.70;;;;;;;23.49;41.36;101612.97;16199068;19;128391;-50
2022/08/21 02:42:21;;;;;;;1.50;0.63;;;;;;;23.48;41.49;101608.47;16192439;19;129133;-53
2022/08/21 02:47:51;;;;;;;1.48;0.80;;;;;;;23.49;41.31;101602.63;16136006;19;129572;-51
2022/08/21 02:53:16;;;;;;;0.70;0.50;;;;;;;23.47;41.85;101604.00;16133132;19;129282;-51
2022/08/21 02:58:40;;;;;;;;;;;;;;;23.44;41.50;101612.91;16131929;19;128963;-48
2022/08/21 03:04:01;;;;;;;1.00;0.73;;;;;;;23.46;41.20;101603.16;16136093;19;129872;-52
2022/08/21 03:09:23;;;;;;;2.03;0.80;;;;;;;23.45;41.78;101609.84;16138856;19;129611;-48
2022/08/21 03:14:45;;;;;;;1.50;0.80;;;;;;;23.44;41.61;101604.53;16148117;19;129823;-49
2022/08/21 03:20:08;;;;;;;0.98;0.70;;;;;;;23.43;41.72;101602.84;16150616;19;129893;-52
2022/08/21 03:25:34;;;;;;;1.25;0.70;;;;;;;23.43;41.51;101597.25;16150802;19;129385;-52
2022/08/21 03:31:01;;;;;;;1.13;0.70;;;;;;;23.43;41.92;101602.84;16150091;19;129558;-52
2022/08/21 03:36:23;;;;;;;1.13;0.55;;;;;;;23.43;41.79;101591.66;16142297;19;129547;-47
2022/08/21 03:41:47;;;;;;;0.88;0.60;;;;;;;23.41;41.65;101577.13;16150327;19;129979;-48
2022/08/21 03:47:09;;;;;;;2.25;0.80;;;;;;;23.40;41.64;101581.00;16149824;19;129015;-47
2022/08/21 03:52:31;;;;;;;0.82;0.60;;;;;;;23.40;41.52;101583.81;16144660;19;131627;-53
2022/08/21 03:57:53;;;;;;;1.52;0.98;;;;;;;23.39;41.80;101580.19;16147479;19;130460;-50
2022/08/21 04:03:15;;;;;;;0.95;0.77;;;;;;;23.38;41.60;101581.28;16147046;19;129785;-49
2022/08/21 04:08:37;;;;;;;1.33;0.70;;;;;;;23.37;41.82;101589.94;16148302;19;129567;-49
2022/08/21 04:13:59;;;;;;;0.70;0.70;;;;;;;23.35;41.79;101585.47;16144138;19;129526;-46
2022/08/21 04:19:21;;;;;;;1.20;0.60;;;;;;;23.35;41.64;101587.38;16144792;19;129510;-51
2022/08/21 04:24:43;;;;;;;1.45;0.75;;;;;;;23.35;41.69;101601.34;16143208;19;130120;-47
2022/08/21 04:30:05;;;;;;;1.38;0.70;;;;;;;23.34;41.70;101594.94;16144949;19;129587;-48
2022/08/21 04:35:28;;;;;;;1.15;0.70;;;;;;;23.33;41.76;101603.56;16139657;19;129206;-50
2022/08/21 04:40:51;;;;;;;1.55;0.90;;;;;;;23.34;41.90;101624.78;16145326;19;129631;-50
2022/08/21 04:46:12;;;;;;;1.38;0.65;;;;;;;23.31;41.72;101617.78;16142204;19;128928;-48
2022/08/21 04:51:37;;;;;;;1.35;0.77;;;;;;;23.31;41.85;101608.59;16139902;19;129064;-50
2022/08/21 04:57:05;;;;;;;1.97;0.70;;;;;;;23.29;41.73;101592.06;16138953;19;129427;-46
2022/08/21 05:02:26;;;;;;;0.73;0.50;;;;;;;23.29;41.74;101611.63;16141738;19;129830;-50
2022/08/21 05:07:49;;;;;;;1.10;0.65;;;;;;;23.29;41.83;101611.63;16142630;19;128966;-50
2022/08/21 05:13:15;;;;;;;1.33;0.80;;;;;;;23.29;41.86;101614.41;16135373;19;129805;-53
2022/08/21 05:18:37;;;;;;;1.98;0.70;;;;;;;23.29;41.92;101621.97;16134660;19;129495;-52
2022/08/21 05:23:59;;;;;;;0.90;0.68;;;;;;;23.27;41.84;101627.78;16135979;19;129425;-47
2022/08/21 05:29:21;;;;;;;1.30;0.70;;;;;;;23.26;41.72;101628.91;16124933;19;129386;-49
2022/08/21 05:34:43;;;;;;;5.07;1.05;;;;;;;23.25;41.60;101627.22;16117397;19;129646;-52
2022/08/21 05:40:09;;;;;;;1.80;0.77;;;;;;;23.26;41.89;101639.22;16125801;19;129762;-50
2022/08/21 05:45:42;;;;;;;1.40;1.00;;;;;;;23.23;41.38;101632.22;16134726;19;129559;-51
2022/08/21 05:51:08;;;;;;;3.25;0.90;;;;;;;23.25;41.76;101641.19;16133253;19;131310;-52
2022/08/21 05:56:29;;;;;;;1.90;0.70;;;;;;;23.23;41.57;101640.59;16132640;19;129480;-51
2022/08/21 06:01:52;;;;;;;1.73;0.88;;;;;;;23.23;41.87;101643.38;16138533;19;129902;-51
2022/08/21 06:07:14;;;;;;;2.22;1.10;;;;;;;23.23;41.75;101646.19;16137394;19;129330;-48
2022/08/21 06:12:36;;;;;;;1.23;0.70;;;;;;;23.21;41.49;101640.00;16134658;19;129447;-49
2022/08/21 06:18:02;;;;;;;1.67;0.73;;;;;;;23.22;41.66;101638.03;16137565;19;129837;-50
2022/08/21 06:23:24;;;;;;;2.67;0.93;;;;;;;23.20;41.41;101636.34;16136841;19;129021;-49
2022/08/21 06:28:54;;;;;;;2.47;0.98;;;;;;;23.23;41.75;101643.38;16134354;19;129921;-50
2022/08/21 06:34:16;;;;;;;5.95;1.08;;;;;;;23.28;41.70;101657.38;16135187;19;129005;-47
2022/08/21 06:39:37;;;;;;;10.75;1.17;;;;;;;23.41;41.56;101661.75;16136129;19;129728;-51
2022/08/21 06:45:08;;;;;;;2.97;1.00;;;;;;;23.51;41.30;101656.28;16144761;19;129465;-49
2022/08/21 06:50:31;;;;;;;6.07;1.07;;;;;;;23.61;40.78;101644.41;16147285;19;130731;-47
2022/08/21 06:55:53;;;;;;;7.10;1.75;;;;;;;23.67;40.30;101639.72;16148275;19;129483;-50
2022/08/21 07:01:14;;;;;;;4.65;1.60;;;;;;;23.70;40.37;101641.97;16151021;19;129521;-48
2022/08/21 07:06:36;;;;;;;5.45;1.50;;;;;;;23.71;40.21;101649.22;16150266;19;129482;-51
2022/08/21 07:11:58;;;;;;;6.43;1.92;;;;;;;23.74;40.12;101645.09;16149618;19;129349;-51
2022/08/21 07:17:20;;;;;;;6.80;1.30;;;;;;;23.71;40.36;101654.00;16143356;19;129139;-51
2022/08/21 07:22:42;;;;;;;7.45;1.40;;;;;;;23.75;40.21;101647.59;16148366;19;132428;-49
2022/08/21 07:28:04;;;;;;;6.68;1.70;;;;;;;23.78;39.99;101644.28;16146200;19;129539;-48
2022/08/21 07:33:27;;;;;;;7.03;1.60;;;;;;;23.84;40.02;101647.13;16147500;19;129754;-48
2022/08/21 07:38:49;;;;;;;6.90;1.50;;;;;;;23.87;40.13;101647.47;16146972;19;130089;-48
2022/08/21 07:44:13;;;;;;;6.38;1.70;;;;;;;23.91;40.23;101650.56;16146498;19;130060;-46
2022/08/21 07:49:35;;;;;;;8.52;1.40;;;;;;;23.93;40.08;101645.56;16147661;19;129508;-49
2022/08/21 07:54:56;;;;;;;8.90;1.83;;;;;;;23.97;40.08;101646.69;16142921;19;129718;-47
2022/08/21 08:00:25;;;;;;;6.13;1.75;;;;;;;23.97;39.88;101646.69;16147066;19;130422;-50
2022/08/21 08:05:47;;;;;;;7.07;1.50;;;;;;;24.00;40.08;101634.97;16147130;19;130289;-49
2022/08/21 08:11:10;;;;;;;5.65;1.45;;;;;;;24.03;39.83;101639.19;16147886;19;129480;-50
2022/08/21 08:16:32;;;;;;;7.43;1.85;;;;;;;24.03;39.58;101634.47;16143750;19;131623;-51
2022/08/21 08:21:54;;;;;;;9.32;1.58;;;;;;;24.03;39.88;101636.41;16146292;19;130098;-52
2022/08/21 08:27:17;;;;;;;8.25;1.58;;;;;;;24.00;39.96;101636.94;16145350;19;129160;-53
2022/08/21 08:32:39;;;;;;;9.00;1.70;;;;;;;23.98;40.30;101617.63;16142296;19;130283;-50
2022/08/21 08:38:01;;;;;;;11.23;1.90;;;;;;;23.99;40.35;101618.50;16144832;19;129320;-51
2022/08/21 08:43:23;;;;;;;24.40;1.70;;;;;;;23.97;40.54;101625.19;16144775;19;129480;-46
2022/08/21 08:48:56;;;;;;;11.68;1.60;;;;;;;23.95;40.65;101616.22;16139746;19;129080;-47
2022/08/21 08:54:31;;;;;;;12.02;1.90;;;;;;;23.94;40.38;101614.53;16137370;19;129841;-47
2022/08/21 08:59:59;;;;;;;5.53;1.60;;;;;;;23.92;40.56;101611.16;16138682;19;128935;-48
2022/08/21 09:05:40;;;;;;;7.60;1.50;;;;;;;23.93;40.51;101595.25;16142479;19;129008;-48
2022/08/21 09:11:08;;;;;;;9.65;1.67;;;;;;;23.94;40.36;101606.16;16142603;19;129277;-52
2022/08/21 09:17:11;;;;;;;5.68;1.25;;;;;;;23.99;40.35;101604.53;16138517;19;129416;-50
2022/08/21 09:22:39;;;;;;;6.45;1.40;;;;;;;24.00;40.25;101584.69;16141908;19;129575;-49
2022/08/21 09:28:01;;;;;;;10.32;1.73;;;;;;;23.98;40.39;101586.91;16137153;19;129303;-52
2022/08/21 09:33:23;;;;;;;13.43;1.77;;;;;;;23.97;40.15;101602.84;16142153;19;129038;-51
2022/08/21 09:38:52;;;;;;;6.63;1.80;;;;;;;23.95;40.46;101599.47;16137496;19;129189;-46
2022/08/21 09:44:25;;;;;;;13.52;1.65;;;;;;;23.92;40.53;101599.97;16138762;19;129115;-49
2022/08/21 09:49:47;;;;;;;11.75;1.73;;;;;;;23.89;40.38;101600.50;16136670;19;129062;-47
2022/08/21 10:01:05;;;;;;;8.23;1.20;;;;;;;23.86;40.33;101584.28;16138907;19;128871;-46
2022/08/21 10:06:28;;;;;;;8.75;1.30;;;;;;;23.85;40.23;101588.19;16132666;19;129581;-47
2022/08/21 10:12:10;;;;;;;9.02;1.40;;;;;;;23.87;40.06;101579.53;16135995;19;129296;-47
2022/08/21 10:17:50;;;;;;;3.38;1.00;;;;;;;23.85;40.11;101588.19;16133624;19;129692;-51
2022/08/21 10:23:33;;;;;;;4.82;1.17;;;;;;;23.85;39.74;101582.59;16151401;19;129438;-48
2022/08/21 10:29:21;;;;;;;3.50;1.05;;;;;;;23.85;40.12;101584.53;16147919;19;129665;-50
2022/08/21 10:34:58;;;;;;;7.10;1.40;;;;;;;23.83;40.07;101579.22;16147989;19;128920;-50
2022/08/21 10:40:42;;;;;;;5.50;1.20;;;;;;;23.84;39.63;101580.91;16149806;19;130227;-52
2022/08/21 10:46:16;;;;;;;6.55;1.50;;;;;;;23.84;39.40;101572.53;16149618;19;129447;-49
2022/08/21 10:52:01;;;;;;;5.57;1.42;;;;;;;23.85;39.52;101568.63;16146886;19;129103;-49
2022/08/21 10:57:41;;;;;;;4.63;1.13;;;;;;;23.85;39.45;101563.06;16146131;19;129259;-49
2022/08/21 11:03:24;;;;;;;7.80;1.60;;;;;;;23.85;39.55;101571.44;16148565;19;129356;-48
2022/08/21 11:08:52;;;;;;;7.03;1.40;;;;;;;23.86;39.62;101566.66;16148508;19;129354;-49
2022/08/21 11:14:34;;;;;;;7.75;1.52;;;;;;;23.85;39.52;101571.44;16147864;19;129490;-51
2022/08/21 11:20:22;;;;;;;8.18;1.20;;;;;;;23.88;39.73;101565.28;16147126;19;129287;-48
2022/08/21 11:25:57;;;;;;;8.25;1.83;;;;;;;23.90;39.51;101565.88;16148340;19;129374;-50
2022/08/21 11:31:31;;;;;;;9.32;1.60;;;;;;;23.91;39.57;101564.75;16144960;19;130157;-49
2022/08/21 11:37:29;;;;;;;8.57;1.70;;;;;;;23.90;39.62;101557.47;16143947;19;129486;-51
2022/08/21 11:43:18;;;;;;;7.85;1.48;;;;;;;23.92;39.54;101569.25;16145202;19;129442;-47
2022/08/21 11:49:23;;;;;;;10.05;1.80;;;;;;;23.93;39.58;101565.34;16146678;19;129396;-48
2022/08/21 11:54:50;;;;;;;7.78;1.80;;;;;;;23.93;39.72;101562.53;16143135;19;129510;-49
2022/08/21 12:00:25;;;;;;;8.50;1.80;;;;;;;23.94;40.03;101564.22;16142221;19;130464;-51
2022/08/21 12:06:14;;;;;;;9.60;1.80;;;;;;;23.93;39.63;101556.97;16143807;19;129256;-48
2022/08/21 12:12:00;;;;;;;8.35;2.15;;;;;;;23.95;39.86;101553.88;16142714;19;130220;-49
2022/08/21 12:17:34;;;;;;;8.93;2.28;;;;;;;23.95;39.63;101539.91;16138377;19;128855;-48
2022/08/21 12:23:08;;;;;;;13.40;3.33;;;;;;;23.97;39.96;101535.75;16141862;19;129950;-49
2022/08/21 12:28:34;;;;;;;9.27;2.53;;;;;;;23.97;40.12;101551.66;16142749;19;129525;-48
2022/08/21 12:34:00;;;;;;;11.52;3.10;;;;;;;24.01;40.35;101546.38;16141406;19;128832;-49
2022/08/21 12:39:27;;;;;;;6.43;2.05;;;;;;;24.01;40.11;101557.56;16140821;19;130882;-50
2022/08/21 12:45:27;;;;;;;7.80;2.45;;;;;;;24.01;39.95;101558.41;16142488;19;129332;-50
2022/08/21 12:50:58;;;;;;;9.35;2.60;;;;;;;24.03;40.06;101555.34;16136519;19;129812;-48
2022/08/21 12:56:26;;;;;;;9.98;2.90;;;;;;;24.03;39.60;101559.00;16134696;19;129982;-54
2022/08/21 13:01:51;;;;;;;8.65;2.20;;;;;;;24.03;39.77;101560.94;16138545;19;129342;-47
2022/08/21 13:07:21;;;;;;;10.32;2.63;;;;;;;24.03;39.80;101552.53;16135971;19;130014;-49
2022/08/21 13:12:44;;;;;;;8.43;2.60;;;;;;;24.03;39.24;101546.97;16140014;19;129075;-48
2022/08/21 13:18:07;;;;;;;10.50;2.28;;;;;;;24.03;39.51;101555.34;16132842;19;130277;-51
2022/08/21 13:23:31;;;;;;;7.90;2.33;;;;;;;24.02;39.50;101550.84;16135032;19;129455;-50
2022/08/21 13:28:52;;;;;;;8.82;2.10;;;;;;;24.02;39.34;101548.94;16138725;19;130965;-51
2022/08/21 13:34:17;;;;;;;6.85;2.17;;;;;;;24.01;39.04;101552.81;16138602;19;129376;-49
2022/08/21 13:39:39;;;;;;;7.25;1.85;;;;;;;24.02;39.12;101548.06;16136555;19;129315;-50
2022/08/21 13:45:01;;;;;;;5.68;1.63;;;;;;;24.02;38.97;101548.06;16135226;19;129909;-47
2022/08/21 13:50:25;;;;;;;7.57;2.28;;;;;;;24.03;39.16;101544.16;16136625;19;131432;-48
2022/08/21 13:55:48;;;;;;;;;;;;;;;23.99;38.96;101538.28;16130937;19;130034;-49
2022/08/21 14:01:33;;;;;;;5.28;1.65;;;;;;;24.03;39.17;101531.03;16131313;19;130121;-48
2022/08/21 14:06:55;;;;;;;6.57;2.00;;;;;;;24.02;39.07;101537.75;16135785;19;129607;-47
2022/08/21 14:12:29;;;;;;;5.53;1.70;;;;;;;24.04;38.83;101524.34;16131500;19;130867;-49
2022/08/21 14:17:51;;;;;;;7.57;1.98;;;;;;;24.04;38.37;101532.72;16125181;19;129797;-49
2022/08/21 14:23:27;;;;;;;11.68;1.80;;;;;;;24.07;37.87;101534.13;16131303;19;130184;-47
2022/08/21 14:28:49;;;;;;;8.00;1.73;;;;;;;24.09;37.77;101537.50;16131434;19;130288;-51
2022/08/21 14:34:13;;;;;;;9.07;2.03;;;;;;;24.11;37.39;101524.94;16132334;19;129395;-50
2022/08/21 14:39:40;;;;;;;10.65;2.03;;;;;;;24.13;37.60;101521.88;16128331;19;129545;-47
2022/08/21 14:45:14;;;;;;;7.05;2.22;;;;;;;24.15;37.57;101525.25;16133386;19;129464;-47
2022/08/21 14:50:37;;;;;;;9.43;2.08;;;;;;;24.15;37.64;101516.84;16131678;19;129761;-47
2022/08/21 14:56:05;;;;;;;9.05;2.20;;;;;;;24.16;37.60;101521.34;16128893;19;129631;-49
2022/08/21 15:01:27;;;;;;;9.02;2.00;;;;;;;24.15;37.70;101519.66;16130581;19;130795;-49
2022/08/21 15:06:48;;;;;;;9.48;1.98;;;;;;;24.16;37.87;101526.09;16143341;19;130087;-48
2022/08/21 15:12:12;;;;;;;8.90;2.20;;;;;;;24.16;37.66;101524.13;16145878;19;129370;-50
2022/08/21 15:17:35;;;;;;;8.52;1.92;;;;;;;24.17;37.70;101525.81;16141001;19;129322;-49
2022/08/21 15:22:57;;;;;;;9.90;2.03;;;;;;;24.17;37.78;101516.59;16145187;19;129218;-50
2022/08/21 15:28:21;;;;;;;12.25;2.05;;;;;;;24.15;37.84;101516.84;16143833;19;129150;-50
2022/08/21 15:33:42;;;;;;;7.82;2.40;;;;;;;24.13;37.88;101516.28;16146272;19;131646;-51
2022/08/21 15:39:07;;;;;;;16.17;4.40;;;;;;;24.11;37.58;101513.75;16142060;19;129319;-51
2022/08/21 15:44:29;;;;;;;16.63;5.18;;;;;;;24.09;38.10;101515.97;16145133;19;128893;-46
2022/08/21 15:49:51;;;;;;;15.18;5.00;;;;;;;24.05;38.26;101505.59;16142947;19;129426;-52
2022/08/21 15:55:13;;;;;;;17.27;6.13;;;;;;;24.04;38.31;101507.56;16139564;19;130380;-50
2022/08/21 16:00:36;;;;;;;19.80;7.68;;;;;;;24.02;38.69;101507.00;16145130;19;129059;-47
2022/08/21 16:05:57;;;;;;;13.50;5.53;;;;;;;23.99;38.47;101515.09;16143456;19;130348;-49
2022/08/21 16:11:19;;;;;;;16.27;6.10;;;;;;;24.00;38.60;101519.56;16143985;19;129563;-50
2022/08/21 16:16:42;;;;;;;13.90;5.85;;;;;;;23.97;38.63;101509.75;16141333;19;129847;-52
2022/08/21 16:22:04;;;;;;;16.83;6.07;;;;;;;23.96;38.65;101506.13;16140810;19;130174;-48
2022/08/21 16:27:26;;;;;;;16.67;5.35;;;;;;;23.97;38.56;101512.53;16142873;19;128948;-50
2022/08/21 16:32:50;;;;;;;12.60;4.78;;;;;;;23.95;38.50;101501.66;16141253;19;131394;-49
2022/08/21 16:38:12;;;;;;;10.70;4.72;;;;;;;23.94;38.70;101508.34;16135397;19;129607;-49
2022/08/21 16:43:34;;;;;;;15.68;4.20;;;;;;;23.93;38.36;101503.84;16142102;19;131180;-49
2022/08/21 16:48:56;;;;;;;11.00;4.07;;;;;;;23.92;38.68;101499.38;16139875;19;129109;-50
2022/08/21 16:54:18;;;;;;;10.88;4.13;;;;;;;23.92;38.62;101506.94;16136476;19;129663;-50
2022/08/21 16:59:39;;;;;;;10.70;4.18;;;;;;;23.90;38.89;101507.19;16134584;19;129820;-51
2022/08/21 17:05:02;;;;;;;8.88;3.45;;;;;;;23.89;38.92;101505.50;16139808;19;129276;-52
2022/08/21 17:10:24;;;;;;;9.55;3.67;;;;;;;23.89;38.89;101507.47;16137232;19;130014;-47
2022/08/21 17:15:46;;;;;;;9.80;3.78;;;;;;;23.87;38.92;101504.94;16131387;19;129281;-50
2022/08/21 17:21:07;;;;;;;8.43;3.63;;;;;;;23.86;38.87;101506.06;16138381;19;128941;-53
2022/08/21 17:26:30;;;;;;;7.30;3.28;;;;;;;23.85;38.86;101497.94;16135404;19;131384;-48
2022/08/21 17:31:52;;;;;;;7.38;3.60;;;;;;;23.84;38.76;101499.03;16137092;19;129483;-49
2022/08/21 17:37:14;;;;;;;7.68;3.33;;;;;;;23.83;38.97;101501.00;16134031;19;129180;-50
2022/08/21 17:42:36;;;;;;;7.45;3.10;;;;;;;23.82;39.07;101510.50;16136958;19;128993;-48
2022/08/21 17:47:57;;;;;;;10.48;3.38;;;;;;;23.81;39.04;101503.22;16135487;19;128964;-52
2022/08/21 17:53:19;;;;;;;14.10;2.92;;;;;;;23.84;39.45;101491.50;16125156;19;130178;-51
2022/08/21 17:58:47;;;;;;;12.90;3.38;;;;;;;23.90;38.92;101495.19;16129942;19;130874;-52
2022/08/21 18:04:10;;;;;;;14.18;3.25;;;;;;;23.92;39.37;101504.16;16134319;19;129466;-49
2022/08/21 18:09:32;;;;;;;10.65;3.17;;;;;;;23.94;39.22;101501.91;16134771;19;129527;-52
2022/08/21 18:14:54;;;;;;;19.63;3.95;;;;;;;23.94;39.28;101505.56;16134405;19;129387;-51
2022/08/21 18:20:19;;;;;;;17.52;2.65;;;;;;;23.95;39.34;101498.84;16127848;19;129196;-53
2022/08/21 18:25:45;;;;;;;22.13;3.17;;;;;;;23.92;39.03;101504.16;16128955;19;130261;-52
2022/08/21 18:31:09;;;;;;;28.83;2.83;;;;;;;23.94;39.08;101501.91;16133025;19;131031;-51
2022/08/21 18:36:31;;;;;;;14.30;2.73;;;;;;;23.95;39.31;101510.03;16128739;19;129490;-49
2022/08/21 18:41:54;;;;;;;15.32;2.60;;;;;;;23.95;39.03;101510.03;16143963;19;130437;-50
2022/08/21 18:47:27;;;;;;;11.15;2.72;;;;;;;23.94;38.94;101513.94;16146518;19;129015;-54
2022/08/21 18:52:49;;;;;;;13.35;2.47;;;;;;;23.93;39.03;101517.00;16142571;19;131074;-52
2022/08/21 18:58:15;;;;;;;13.90;1.90;;;;;;;23.95;38.93;101521.22;16141791;19;129608;-49
2022/08/21 19:03:38;;;;;;;14.20;3.00;;;;;;;23.92;38.65;101527.31;16142601;19;129929;-53
2022/08/21 19:09:00;;;;;;;7.35;1.90;;;;;;;23.91;38.76;101530.41;16144218;19;128859;-52
2022/08/21 19:14:22;;;;;;;12.10;1.75;;;;;;;23.91;38.74;101530.41;16145990;19;129433;-49
2022/08/21 19:19:46;;;;;;;36.22;3.20;;;;;;;23.90;38.58;101528.72;16138479;19;129425;-51
2022/08/21 19:25:12;;;;;;;27.65;2.22;;;;;;;23.88;38.44;101537.34;16143184;19;129401;-48
2022/08/21 19:30:40;;;;;;;25.00;2.55;;;;;;;23.87;38.71;101532.03;16144950;19;129781;-51
2022/08/21 19:36:03;;;;;;;15.43;2.28;;;;;;;23.86;38.30;101539.59;16135671;19;129456;-51
2022/08/21 19:41:30;;;;;;;15.25;2.17;;;;;;;23.86;38.72;101547.97;16142868;19;130000;-52
2022/08/21 19:46:53;;;;;;;7.97;2.00;;;;;;;23.90;38.90;101557.47;16141460;19;129913;-52
2022/08/21 19:52:17;;;;;;;26.10;2.55;;;;;;;23.93;39.08;101551.38;16136289;19;130019;-50
2022/08/21 19:57:39;;;;;;;11.40;1.85;;;;;;;23.93;39.18;101556.97;16135719;19;130383;-54
2022/08/21 20:03:01;;;;;;;18.48;2.53;;;;;;;23.92;39.35;101555.28;16142746;19;129487;-49
2022/08/21 20:08:23;;;;;;;15.85;3.10;;;;;;;23.91;39.23;101548.00;16143940;19;130158;-49
2022/08/21 20:13:48;;;;;;;23.48;2.60;;;;;;;23.90;39.64;101548.28;16144409;19;129731;-49
2022/08/21 20:19:10;;;;;;;9.77;1.90;;;;;;;23.87;39.03;101541.28;16140033;19;129883;-49
2022/08/21 20:24:32;;;;;;;9.88;2.00;;;;;;;23.86;39.35;101536.78;16142408;19;130833;-49
2022/08/21 20:29:54;;;;;;;8.52;2.35;;;;;;;23.84;39.54;101544.59;16142209;19;130343;-49
2022/08/21 20:35:16;;;;;;;6.68;1.95;;;;;;;23.83;39.44;101534.53;16140673;19;129637;-47
2022/08/21 20:40:38;;;;;;;8.43;1.73;;;;;;;23.82;39.47;101544.03;16136105;19;129806;-47
2022/08/21 20:46:00;;;;;;;9.95;2.03;;;;;;;23.80;39.71;101540.66;16141187;19;129413;-48
2022/08/21 20:51:33;;;;;;;7.65;1.83;;;;;;;23.79;39.67;101545.41;16138510;19;131349;-51
2022/08/21 20:57:13;;;;;;;8.02;2.22;;;;;;;23.78;39.62;101538.13;16137217;19;128942;-52
2022/08/21 21:02:41;;;;;;;6.60;1.60;;;;;;;23.78;39.64;101537.28;16139761;19;129337;-50
2022/08/21 21:08:11;;;;;;;5.85;1.70;;;;;;;23.76;39.56;101540.34;16141753;19;130080;-47
2022/08/21 21:13:40;;;;;;;6.28;1.40;;;;;;;23.75;39.81;101537.81;16141422;19;130342;-49
2022/08/21 21:19:13;;;;;;;7.55;1.67;;;;;;;23.74;39.88;101538.94;16135440;19;129348;-48
2022/08/21 21:24:50;;;;;;;7.15;1.98;;;;;;;23.75;39.78;101540.63;16139302;19;129581;-51
2022/08/21 21:30:27;;;;;;;6.72;1.80;;;;;;;23.74;39.73;101536.13;16139352;19;129453;-50
2022/08/21 21:35:53;;;;;;;6.78;1.55;;;;;;;23.72;39.81;101533.59;16138301;19;130185;-53
2022/08/21 21:41:32;;;;;;;7.75;1.90;;;;;;;23.72;39.75;101528.00;16138048;19;129390;-52
2022/08/21 21:47:10;;;;;;;6.32;1.50;;;;;;;23.71;39.87;101531.06;16133828;19;134339;-53
2022/08/21 21:52:51;;;;;;;4.45;1.58;;;;;;;23.70;39.63;101532.19;16134498;19;129544;-49
2022/08/21 21:58:37;;;;;;;5.93;1.65;;;;;;;23.68;39.92;101537.19;16134419;19;129947;-49
2022/08/21 22:04:13;;;;;;;;;;;;;;;23.63;40.12;101541.63;16137176;19;129397;-50
2022/08/21 22:09:42;;;;;;;6.38;2.15;;;;;;;23.66;40.24;101531.88;16136713;19;129383;-48
2022/08/21 22:15:05;;;;;;;11.88;1.58;;;;;;;23.64;40.13;101529.34;16152984;19;129502;-52
2022/08/21 22:20:33;;;;;;;6.22;1.40;;;;;;;23.65;40.22;101531.03;16161960;19;129977;-52
2022/08/21 22:26:02;;;;;;;5.95;1.50;;;;;;;23.64;40.18;101529.34;16161976;19;129336;-51
2022/08/21 22:31:31;;;;;;;5.20;1.70;;;;;;;23.64;40.21;101525.72;16165561;19;129457;-54
2022/08/21 22:36:59;;;;;;;6.35;1.65;;;;;;;23.63;40.39;101518.44;16165429;19;129529;-50
2022/08/21 22:42:24;;;;;;;5.25;2.00;;;;;;;23.62;40.57;101539.09;16165774;19;130797;-50
2022/08/21 22:47:47;;;;;;;4.40;1.33;;;;;;;23.61;40.28;101543.00;16165746;19;130438;-50
2022/08/21 22:53:10;;;;;;;3.97;1.40;;;;;;;23.62;40.41;101536.31;16161631;19;129021;-50
2022/08/21 22:58:54;;;;;;;5.53;1.35;;;;;;;23.62;40.32;101553.91;16163798;19;129401;-53
2022/08/21 23:04:20;;;;;;;6.15;1.35;;;;;;;23.62;40.23;101547.47;16174779;19;129534;-48
2022/08/21 23:09:47;;;;;;;3.97;1.30;;;;;;;23.60;40.26;101542.16;16220795;19;129588;-51
2022/08/21 23:15:13;;;;;;;3.83;1.33;;;;;;;23.58;40.39;101544.38;16222361;19;128777;-52
2022/08/21 23:20:50;;;;;;;3.17;1.30;;;;;;;23.61;40.48;101543.00;16220259;19;128770;-52
2022/08/21 23:26:20;;;;;;;4.55;1.80;;;;;;;23.59;40.69;101532.09;16215492;19;129120;-51
2022/08/21 23:31:56;;;;;;;3.50;1.20;;;;;;;23.58;40.45;101533.22;16207899;19;128939;-47
2022/08/21 23:37:49;;;;;;;3.85;1.58;;;;;;;23.60;40.39;101525.41;16203852;19;129112;-50
2022/08/21 23:43:56;;;;;;;2.85;1.20;;;;;;;23.58;40.55;101510.88;16200499;19;129566;-49
2022/08/21 23:49:39;;;;;;;5.78;1.48;;;;;;;23.58;40.43;101513.66;16203505;19;129745;-46
2022/08/21 23:55:22;;;;;;;3.97;1.70;;;;;;;23.56;40.09;101507.47;16145641;19;129568;-49
